Time;durP1;ratioP1;P1;durP2;ratioP2;P2;SDS_P1;SDS_P2;PMS_P1;PMS_P2;Temp;Humidity;BMP_temperature;BMP_pressure;BME280_temperature;BME280_humidity;BME280_pressure;Samples;Min_cycle;Max_cycle;Signal;HPM_P1;HPM_P2
2020/12/02 00:01:48;;;;;;;63.35;26.25;;;;;;;;;;5084687;28;20072;-81
2020/12/02 00:04:20;;;;;;;60.40;26.65;;;;;;;;;;5071182;28;20488;-81
2020/12/02 00:06:48;;;;;;;63.00;27.30;;;;;;;;;;5066313;28;20084;-81
2020/12/02 00:09:19;;;;;;;59.00;26.92;;;;;;;;;;5069422;28;20172;-81
2020/12/02 00:11:46;;;;;;;65.38;27.45;;;;;;;;;;5077792;28;20063;-81
2020/12/02 00:14:17;;;;;;;66.65;28.35;;;;;;;;;;5065449;28;20433;-80
2020/12/02 00:16:43;;;;;;;68.00;27.83;;;;;;;;;;5057044;28;20417;-81
2020/12/02 00:19:13;;;;;;;63.03;26.52;;;;;;;;;;5078979;28;20120;-80
2020/12/02 00:21:56;;;;;;;59.45;27.52;;;;;;;;;;5083739;28;20055;-80
2020/12/02 00:24:22;;;;;;;66.32;28.20;;;;;;;;;;5079160;28;20110;-80
2020/12/02 00:26:49;;;;;;;67.35;28.08;;;;;;;;;;5086163;28;20053;-80
2020/12/02 00:29:15;;;;;;;66.55;28.00;;;;;;;;;;5084641;28;20052;-81
2020/12/02 00:31:41;;;;;;;61.38;25.88;;;;;;;;;;5084412;28;20108;-81
2020/12/02 00:34:07;;;;;;;72.18;29.00;;;;;;;;;;5083230;28;20088;-81
2020/12/02 00:36:34;;;;;;;71.80;29.35;;;;;;;;;;5084244;28;20080;-81
2020/12/02 00:39:00;;;;;;;70.03;29.92;;;;;;;;;;5085907;28;20110;-81
2020/12/02 00:41:26;;;;;;;71.65;28.15;;;;;;;;;;5085620;28;20142;-81
2020/12/02 00:43:52;;;;;;;72.97;29.17;;;;;;;;;;5084501;28;20048;-81
2020/12/02 00:46:18;;;;;;;72.95;29.02;;;;;;;;;;5086240;28;20048;-80
2020/12/02 00:48:51;;;;;;;68.10;29.35;;;;;;;;;;5086117;28;20053;-80
2020/12/02 00:51:17;;;;;;;74.25;29.45;;;;;;;;;;5085805;28;20048;-80
2020/12/02 00:53:44;;;;;;;74.43;29.40;;;;;;;;;;5086583;28;20049;-80
2020/12/02 00:56:11;;;;;;;79.88;30.80;;;;;;;;;;5084684;28;20056;-81
2020/12/02 00:58:47;;;;;;;70.43;27.88;;;;;;;;;;5085472;28;20080;-80
2020/12/02 01:01:20;;;;;;;74.97;30.80;;;;;;;;;;5087663;28;20352;-80
2020/12/02 01:03:48;;;;;;;85.25;29.98;;;;;;;;;;5087952;28;20055;-81
2020/12/02 01:06:14;;;;;;;98.47;35.20;;;;;;;;;;5086588;28;20107;-80
2020/12/02 01:08:50;;;;;;;95.60;32.55;;;;;;;;;;5086328;28;20525;-80
2020/12/02 01:11:19;;;;;;;103.25;34.78;;;;;;;;;;5085477;28;20052;-80
2020/12/02 01:13:46;;;;;;;92.07;33.00;;;;;;;;;;5085022;28;20420;-80
2020/12/02 01:16:24;;;;;;;108.30;36.65;;;;;;;;;;5084085;28;20062;-80
2020/12/02 01:18:50;;;;;;;117.03;40.67;;;;;;;;;;5083386;28;20087;-80
2020/12/02 01:21:22;;;;;;;116.53;40.00;;;;;;;;;;5092956;28;20406;-80
2020/12/02 01:23:57;;;;;;;105.32;39.90;;;;;;;;;;5094612;28;20053;-81
2020/12/02 01:26:24;;;;;;;117.35;40.60;;;;;;;;;;5091778;28;20064;-81
2020/12/02 01:28:51;;;;;;;109.32;40.35;;;;;;;;;;5088563;28;20051;-81
2020/12/02 01:31:19;;;;;;;101.72;39.92;;;;;;;;;;5091525;28;20052;-80
2020/12/02 01:33:49;;;;;;;94.20;37.47;;;;;;;;;;5092184;28;20075;-81
2020/12/02 01:36:18;;;;;;;89.82;36.38;;;;;;;;;;5095335;28;20037;-81
2020/12/02 01:38:47;;;;;;;95.85;39.63;;;;;;;;;;5076183;28;20110;-81
2020/12/02 01:41:25;;;;;;;92.03;35.50;;;;;;;;;;5069757;28;20049;-81
2020/12/02 01:43:52;;;;;;;97.43;37.67;;;;;;;;;;5068448;28;20053;-80
2020/12/02 01:46:47;;;;;;;100.07;38.75;;;;;;;;;;5071237;28;20059;-80
2020/12/02 01:49:39;;;;;;;97.88;39.13;;;;;;;;;;5072382;28;20149;-80
2020/12/02 01:52:18;;;;;;;99.88;36.17;;;;;;;;;;5069397;28;20065;-81
2020/12/02 01:54:47;;;;;;;91.13;37.28;;;;;;;;;;5072792;28;20049;-81
2020/12/02 01:57:19;;;;;;;97.50;39.58;;;;;;;;;;5068942;28;20057;-81
2020/12/02 01:59:55;;;;;;;97.43;38.40;;;;;;;;;;5070719;28;20052;-80
2020/12/02 02:02:33;;;;;;;96.20;37.58;;;;;;;;;;5075129;28;20080;-80
2020/12/02 02:05:04;;;;;;;89.03;37.10;;;;;;;;;;5075635;28;20105;-81
2020/12/02 02:07:37;;;;;;;104.20;40.83;;;;;;;;;;5073870;28;20051;-81
2020/12/02 02:10:08;;;;;;;94.90;38.83;;;;;;;;;;5072450;28;20059;-81
2020/12/02 02:12:43;;;;;;;106.32;41.65;;;;;;;;;;5072735;28;20068;-81
2020/12/02 02:15:28;;;;;;;94.17;39.67;;;;;;;;;;5071852;28;20429;-81
2020/12/02 02:17:56;;;;;;;93.70;39.33;;;;;;;;;;5089932;28;20048;-81
2020/12/02 02:20:27;;;;;;;94.88;39.67;;;;;;;;;;5087640;28;20076;-81
2020/12/02 02:22:53;;;;;;;96.72;39.65;;;;;;;;;;5088658;28;20117;-81
2020/12/02 02:25:19;;;;;;;99.90;41.25;;;;;;;;;;5089774;28;20079;-81
2020/12/02 02:27:49;;;;;;;93.90;38.38;;;;;;;;;;5097061;28;20074;-81
2020/12/02 02:30:16;;;;;;;95.68;39.00;;;;;;;;;;5097595;28;20047;-81
2020/12/02 02:32:44;;;;;;;95.13;38.20;;;;;;;;;;5094983;28;20094;-81
2020/12/02 02:35:11;;;;;;;99.47;39.47;;;;;;;;;;5075833;28;20036;-81
2020/12/02 02:37:41;;;;;;;97.25;38.42;;;;;;;;;;5073421;28;20079;-81
2020/12/02 02:40:08;;;;;;;88.80;38.15;;;;;;;;;;5075014;28;20067;-81
2020/12/02 02:42:44;;;;;;;97.38;39.88;;;;;;;;;;5073625;28;20051;-80
2020/12/02 02:45:11;;;;;;;95.63;40.03;;;;;;;;;;5076908;28;20045;-81
2020/12/02 02:47:44;;;;;;;98.45;39.63;;;;;;;;;;5077063;28;20060;-81
2020/12/02 02:50:15;;;;;;;98.20;40.83;;;;;;;;;;5071394;28;20405;-81
2020/12/02 02:52:43;;;;;;;99.13;40.40;;;;;;;;;;5069188;28;20344;-81
2020/12/02 02:55:14;;;;;;;99.57;38.85;;;;;;;;;;5069352;28;20057;-81
2020/12/02 02:57:41;;;;;;;89.47;39.10;;;;;;;;;;5069023;28;20086;-81
2020/12/02 03:00:08;;;;;;;91.35;38.25;;;;;;;;;;5106980;28;20147;-81
2020/12/02 03:02:34;;;;;;;102.50;41.08;;;;;;;;;;5088689;28;20048;-81
2020/12/02 03:05:06;;;;;;;101.55;41.75;;;;;;;;;;5067618;28;20075;-81
2020/12/02 03:07:32;;;;;;;95.88;39.83;;;;;;;;;;5083413;28;20060;-81
2020/12/02 03:10:13;;;;;;;97.47;38.53;;;;;;;;;;5083120;28;20062;-81
2020/12/02 03:12:40;;;;;;;90.88;41.72;;;;;;;;;;5065320;28;20056;-81
2020/12/02 03:15:13;;;;;;;100.43;42.45;;;;;;;;;;5083661;28;20060;-81
2020/12/02 03:17:39;;;;;;;98.78;43.10;;;;;;;;;;5098271;28;20044;-81
2020/12/02 03:20:14;;;;;;;109.30;42.65;;;;;;;;;;5066901;28;20387;-81
2020/12/02 03:22:43;;;;;;;102.30;41.58;;;;;;;;;;5075405;28;20056;-81
2020/12/02 03:25:14;;;;;;;106.05;42.70;;;;;;;;;;5106168;28;20040;-80
2020/12/02 03:27:40;;;;;;;96.32;42.92;;;;;;;;;;5088902;28;20048;-81
2020/12/02 03:30:07;;;;;;;100.45;41.25;;;;;;;;;;5104972;28;20299;-81
2020/12/02 03:32:48;;;;;;;97.20;41.30;;;;;;;;;;5086875;28;20139;-81
2020/12/02 03:35:14;;;;;;;109.00;43.08;;;;;;;;;;5068843;28;20048;-81
2020/12/02 03:37:43;;;;;;;102.43;43.38;;;;;;;;;;5088299;28;20094;-80
2020/12/02 03:40:10;;;;;;;101.05;41.55;;;;;;;;;;5087897;28;20055;-81
2020/12/02 03:42:51;;;;;;;102.57;44.22;;;;;;;;;;5086924;28;20131;-81
2020/12/02 03:45:18;;;;;;;101.95;43.92;;;;;;;;;;5086622;28;20058;-81
2020/12/02 03:47:44;;;;;;;103.47;42.63;;;;;;;;;;5070546;28;20055;-81
2020/12/02 03:50:10;;;;;;;104.20;42.33;;;;;;;;;;5087998;28;20076;-81
2020/12/02 03:52:37;;;;;;;108.97;47.85;;;;;;;;;;5100740;28;20070;-81
2020/12/02 03:55:11;;;;;;;110.95;45.50;;;;;;;;;;5109483;28;20052;-81
2020/12/02 03:57:43;;;;;;;100.10;43.20;;;;;;;;;;5091584;28;20059;-81
2020/12/02 04:00:11;;;;;;;96.40;40.50;;;;;;;;;;5090942;28;20115;-81
2020/12/02 04:02:37;;;;;;;108.18;44.20;;;;;;;;;;5107801;28;20052;-81
2020/12/02 04:05:19;;;;;;;102.13;44.28;;;;;;;;;;5108310;28;20052;-81
2020/12/02 04:07:45;;;;;;;101.60;43.95;;;;;;;;;;5084944;28;20056;-80
2020/12/02 04:10:12;;;;;;;99.22;41.15;;;;;;;;;;5096575;28;20029;-80
2020/12/02 04:12:39;;;;;;;107.28;45.88;;;;;;;;;;5101852;28;20055;-81
2020/12/02 04:15:15;;;;;;;97.90;43.70;;;;;;;;;;5110416;28;20058;-80
2020/12/02 04:17:42;;;;;;;113.90;45.50;;;;;;;;;;5089722;28;20078;-81
2020/12/02 04:20:09;;;;;;;93.80;42.15;;;;;;;;;;5089203;28;20044;-81
2020/12/02 04:22:38;;;;;;;100.53;42.92;;;;;;;;;;5071808;28;20391;-82
2020/12/02 04:25:04;;;;;;;98.90;43.50;;;;;;;;;;5106395;28;20074;-81
2020/12/02 04:27:33;;;;;;;103.55;43.88;;;;;;;;;;5096144;28;20049;-80
2020/12/02 04:30:03;;;;;;;98.68;42.05;;;;;;;;;;5085837;28;20115;-81
2020/12/02 04:32:34;;;;;;;100.15;43.38;;;;;;;;;;5092355;28;20062;-82
2020/12/02 04:35:02;;;;;;;97.78;45.30;;;;;;;;;;5104057;28;20067;-81
2020/12/02 04:37:30;;;;;;;107.32;43.63;;;;;;;;;;5103706;28;20063;-81
2020/12/02 04:39:57;;;;;;;105.25;43.30;;;;;;;;;;5104451;28;20052;-81
2020/12/02 04:42:29;;;;;;;97.20;40.97;;;;;;;;;;5104887;28;20201;-81
2020/12/02 04:45:02;;;;;;;99.18;43.20;;;;;;;;;;5088238;28;20059;-81
2020/12/02 04:47:32;;;;;;;105.15;42.83;;;;;;;;;;5087487;28;20408;-81
2020/12/02 04:50:01;;;;;;;106.63;46.15;;;;;;;;;;5086522;28;20052;-81
2020/12/02 04:52:28;;;;;;;98.53;42.70;;;;;;;;;;5093547;28;20083;-81
2020/12/02 04:54:55;;;;;;;96.50;41.67;;;;;;;;;;5085683;28;20226;-81
2020/12/02 04:57:21;;;;;;;97.45;42.55;;;;;;;;;;5098893;28;20048;-83
2020/12/02 04:59:47;;;;;;;98.22;43.72;;;;;;;;;;5096308;28;20230;-82
2020/12/02 05:02:28;;;;;;;91.55;40.97;;;;;;;;;;5078914;28;20048;-82
2020/12/02 05:04:55;;;;;;;91.70;41.72;;;;;;;;;;5082214;28;20224;-82
2020/12/02 05:07:24;;;;;;;91.03;41.85;;;;;;;;;;5097377;28;20064;-81
2020/12/02 05:13:47;;;;;;;105.53;43.85;;;;;;;;;;5115005;28;20042;-80
2020/12/02 05:20:08;;;;;;;93.45;42.00;;;;;;;;;;5108345;28;20047;-81
2020/12/02 05:26:15;;;;;;;92.97;41.10;;;;;;;;;;5103697;28;20062;-81
2020/12/02 05:32:12;;;;;;;88.45;39.90;;;;;;;;;;5102604;28;20438;-81
2020/12/02 05:34:39;;;;;;;87.95;40.80;;;;;;;;;;5076755;28;20059;-81
2020/12/02 05:37:08;;;;;;;81.43;39.33;;;;;;;;;;5081589;28;20440;-81
2020/12/02 05:39:41;;;;;;;89.40;42.17;;;;;;;;;;5065861;28;20111;-81
2020/12/02 05:42:13;;;;;;;82.15;40.47;;;;;;;;;;5079779;28;20356;-81
2020/12/02 05:44:42;;;;;;;85.22;41.50;;;;;;;;;;5066113;28;20049;-81
2020/12/02 05:47:13;;;;;;;81.22;39.22;;;;;;;;;;5073877;28;20052;-81
2020/12/02 05:49:45;;;;;;;85.90;42.60;;;;;;;;;;5097041;28;20062;-81
2020/12/02 05:52:24;;;;;;;79.85;38.95;;;;;;;;;;5067511;28;20326;-81
2020/12/02 05:54:55;;;;;;;84.97;41.10;;;;;;;;;;5064059;28;20053;-81
2020/12/02 05:57:22;;;;;;;87.18;41.75;;;;;;;;;;5064176;28;20075;-81
2020/12/02 05:59:57;;;;;;;83.95;39.63;;;;;;;;;;5082545;28;20053;-82
2020/12/02 06:02:25;;;;;;;81.43;40.13;;;;;;;;;;5095078;28;20041;-81
2020/12/02 06:04:56;;;;;;;87.68;41.75;;;;;;;;;;5073255;28;20502;-82
2020/12/02 06:07:51;;;;;;;75.25;40.15;;;;;;;;;;5087545;28;20152;-83
2020/12/02 06:10:31;;;;;;;75.05;37.92;;;;;;;;;;5050130;28;20059;-82
2020/12/02 06:13:01;;;;;;;79.95;39.47;;;;;;;;;;5069480;28;20131;-83
2020/12/02 06:15:33;;;;;;;86.80;40.17;;;;;;;;;;5063207;28;20053;-82
2020/12/02 06:18:15;;;;;;;84.18;40.10;;;;;;;;;;5067465;28;20063;-83
2020/12/02 06:20:46;;;;;;;83.25;39.97;;;;;;;;;;5061873;28;20555;-82
2020/12/02 06:23:12;;;;;;;80.53;41.20;;;;;;;;;;5061346;28;20411;-82
2020/12/02 06:25:58;;;;;;;80.55;39.03;;;;;;;;;;5084253;28;20148;-82
2020/12/02 06:28:28;;;;;;;79.72;39.15;;;;;;;;;;5081830;28;20063;-82
2020/12/02 06:31:00;;;;;;;80.57;39.90;;;;;;;;;;5067030;28;20109;-81
2020/12/02 06:33:37;;;;;;;80.90;39.22;;;;;;;;;;5067043;28;20060;-82
2020/12/02 06:36:13;;;;;;;80.15;36.88;;;;;;;;;;5059876;28;20061;-82
2020/12/02 06:38:41;;;;;;;85.32;41.20;;;;;;;;;;5020091;28;21875;-82
2020/12/02 06:41:21;;;;;;;79.15;38.60;;;;;;;;;;5012921;28;20044;-82
2020/12/02 06:43:55;;;;;;;83.03;38.97;;;;;;;;;;5038345;28;20084;-82
2020/12/02 06:46:50;;;;;;;84.13;39.65;;;;;;;;;;5058710;28;20053;-82
2020/12/02 06:49:18;;;;;;;82.68;37.15;;;;;;;;;;5030666;28;20357;-82
2020/12/02 06:52:12;;;;;;;78.55;39.90;;;;;;;;;;5050792;28;20113;-82
2020/12/02 06:54:40;;;;;;;83.20;39.30;;;;;;;;;;5022542;28;20050;-82
2020/12/02 06:57:14;;;;;;;80.38;38.83;;;;;;;;;;5026862;28;20045;-81
2020/12/02 06:59:47;;;;;;;76.43;38.28;;;;;;;;;;5028459;28;20116;-81
2020/12/02 07:02:45;;;;;;;78.28;38.17;;;;;;;;;;5040555;28;20054;-82
2020/12/02 07:05:26;;;;;;;79.05;40.03;;;;;;;;;;5028074;28;20046;-83
2020/12/02 07:08:17;;;;;;;83.50;39.40;;;;;;;;;;5029709;28;20097;-83
2020/12/02 07:11:02;;;;;;;81.88;37.97;;;;;;;;;;5026866;28;20046;-83
2020/12/02 07:13:39;;;;;;;80.32;40.90;;;;;;;;;;5036876;28;20116;-83
2020/12/02 07:16:11;;;;;;;81.28;39.45;;;;;;;;;;5039374;28;20129;-83
2020/12/02 07:18:37;;;;;;;81.40;37.90;;;;;;;;;;5023908;28;20116;-83
2020/12/02 07:21:39;;;;;;;76.85;38.50;;;;;;;;;;5022762;28;20414;-82
2020/12/02 07:24:08;;;;;;;78.25;38.60;;;;;;;;;;4958330;28;20057;-83
2020/12/02 07:26:36;;;;;;;78.25;39.65;;;;;;;;;;5021425;28;20068;-82
2020/12/02 07:29:23;;;;;;;82.18;38.75;;;;;;;;;;5039333;28;20065;-81
2020/12/02 07:31:57;;;;;;;71.50;36.90;;;;;;;;;;5042337;28;20076;-81
2020/12/02 07:34:25;;;;;;;88.13;41.20;;;;;;;;;;5041335;28;20118;-80
2020/12/02 07:37:02;;;;;;;86.18;40.28;;;;;;;;;;5058147;28;20052;-81
2020/12/02 07:39:29;;;;;;;78.68;36.22;;;;;;;;;;5062362;28;20056;-81
2020/12/02 07:42:17;;;;;;;76.45;38.60;;;;;;;;;;5058098;28;20041;-81
2020/12/02 07:44:53;;;;;;;83.97;38.67;;;;;;;;;;5057492;28;20135;-81
2020/12/02 07:47:21;;;;;;;83.30;38.33;;;;;;;;;;5061086;28;20056;-82
2020/12/02 07:50:00;;;;;;;74.07;36.95;;;;;;;;;;5065078;28;20045;-82
2020/12/02 07:52:43;;;;;;;79.88;39.30;;;;;;;;;;5058363;28;20329;-82
2020/12/02 07:55:18;;;;;;;78.18;37.75;;;;;;;;;;5063043;28;20044;-82
2020/12/02 07:57:45;;;;;;;80.07;39.40;;;;;;;;;;5064784;28;20045;-82
2020/12/02 08:00:12;;;;;;;89.43;39.70;;;;;;;;;;5065119;28;20041;-82
2020/12/02 08:02:47;;;;;;;81.65;39.00;;;;;;;;;;5062636;28;20220;-82
2020/12/02 08:05:37;;;;;;;80.60;38.78;;;;;;;;;;5059827;28;20045;-81
2020/12/02 08:08:12;;;;;;;77.63;39.20;;;;;;;;;;5048054;28;20041;-82
2020/12/02 08:10:39;;;;;;;79.97;38.73;;;;;;;;;;5062841;28;20048;-82
2020/12/02 08:13:15;;;;;;;72.65;36.95;;;;;;;;;;5056318;28;20502;-82
2020/12/02 08:15:52;;;;;;;81.18;38.65;;;;;;;;;;5059342;28;20047;-81
2020/12/02 08:18:22;;;;;;;80.15;37.13;;;;;;;;;;5062765;28;20076;-81
2020/12/02 08:21:13;;;;;;;80.40;38.88;;;;;;;;;;5058759;28;20045;-81
2020/12/02 08:23:41;;;;;;;79.03;40.22;;;;;;;;;;5068050;28;20063;-82
2020/12/02 08:26:14;;;;;;;75.93;38.08;;;;;;;;;;5068318;28;20032;-81
2020/12/02 08:28:41;;;;;;;69.05;36.40;;;;;;;;;;5072206;28;20539;-82
2020/12/02 08:31:35;;;;;;;74.47;38.35;;;;;;;;;;5059954;28;20048;-82
2020/12/02 08:34:19;;;;;;;73.57;38.45;;;;;;;;;;5058552;28;20056;-82
2020/12/02 08:36:50;;;;;;;76.57;38.50;;;;;;;;;;5044661;28;20072;-82
2020/12/02 08:39:33;;;;;;;83.18;37.55;;;;;;;;;;5050678;28;20064;-82
2020/12/02 08:41:59;;;;;;;79.68;37.17;;;;;;;;;;5033023;28;20281;-82
2020/12/02 08:44:28;;;;;;;69.65;35.92;;;;;;;;;;5039260;28;20053;-82
2020/12/02 08:46:59;;;;;;;72.80;38.38;;;;;;;;;;5048965;28;20061;-81
2020/12/02 08:49:28;;;;;;;70.63;36.47;;;;;;;;;;5051809;28;20034;-82
2020/12/02 08:51:55;;;;;;;71.63;35.55;;;;;;;;;;5042745;28;20384;-82
2020/12/02 08:54:31;;;;;;;71.93;34.95;;;;;;;;;;5041216;28;20049;-82
2020/12/02 08:56:57;;;;;;;;;;;;;;;;;;5041395;28;20041;-82
2020/12/02 08:59:27;;;;;;;71.35;35.97;;;;;;;;;;5037741;28;20015;-83
2020/12/02 09:02:12;;;;;;;65.80;34.08;;;;;;;;;;5039865;28;20396;-82
2020/12/02 09:04:39;;;;;;;71.68;33.22;;;;;;;;;;5036735;28;20136;-82
2020/12/02 09:07:11;;;;;;;71.68;36.60;;;;;;;;;;5036776;28;20057;-83
2020/12/02 09:09:38;;;;;;;65.65;34.20;;;;;;;;;;5039490;28;20443;-82
2020/12/02 09:12:05;;;;;;;70.43;34.97;;;;;;;;;;5040350;28;20049;-82
2020/12/02 09:14:46;;;;;;;66.68;34.72;;;;;;;;;;5036729;28;20053;-82
2020/12/02 09:17:15;;;;;;;62.22;31.77;;;;;;;;;;5030824;28;20072;-81
2020/12/02 09:19:47;;;;;;;59.92;32.97;;;;;;;;;;5035298;28;20042;-83
2020/12/02 09:22:14;;;;;;;64.43;33.63;;;;;;;;;;5039706;28;20053;-81
2020/12/02 09:24:45;;;;;;;66.95;33.75;;;;;;;;;;5042188;28;20046;-81
2020/12/02 09:27:13;;;;;;;67.30;32.58;;;;;;;;;;5033538;28;20058;-80
2020/12/02 09:29:39;;;;;;;58.78;32.05;;;;;;;;;;5041134;28;20041;-82
2020/12/02 09:32:11;;;;;;;61.78;32.25;;;;;;;;;;5038451;28;20061;-82
2020/12/02 09:34:40;;;;;;;64.65;33.03;;;;;;;;;;5034131;28;20286;-82
2020/12/02 09:37:11;;;;;;;62.75;32.35;;;;;;;;;;5083489;28;20130;-81
2020/12/02 09:39:39;;;;;;;66.35;33.05;;;;;;;;;;5084856;28;20380;-82
2020/12/02 09:42:23;;;;;;;57.88;31.33;;;;;;;;;;5078070;28;20048;-82
2020/12/02 09:45:11;;;;;;;69.15;34.78;;;;;;;;;;5051778;28;20072;-81
2020/12/02 09:47:39;;;;;;;67.50;34.75;;;;;;;;;;5083122;28;20079;-81
2020/12/02 09:50:09;;;;;;;66.28;32.92;;;;;;;;;;5066026;28;20044;-81
2020/12/02 09:52:42;;;;;;;64.93;33.40;;;;;;;;;;5072973;28;20048;-81
2020/12/02 09:55:16;;;;;;;58.25;32.50;;;;;;;;;;5076171;28;20406;-81
2020/12/02 09:57:51;;;;;;;64.30;33.15;;;;;;;;;;5081446;28;20083;-81
2020/12/02 10:00:24;;;;;;;60.20;31.83;;;;;;;;;;5065925;28;20100;-82
2020/12/02 10:03:11;;;;;;;62.63;33.28;;;;;;;;;;5080650;28;20048;-81
2020/12/02 10:05:41;;;;;;;66.50;31.67;;;;;;;;;;5059127;28;20045;-81
2020/12/02 10:08:11;;;;;;;67.47;32.45;;;;;;;;;;5062460;28;20048;-81
2020/12/02 10:10:46;;;;;;;62.03;31.20;;;;;;;;;;5079711;28;20040;-81
2020/12/02 10:13:34;;;;;;;63.03;33.45;;;;;;;;;;5076872;28;20121;-81
2020/12/02 10:16:20;;;;;;;65.18;33.75;;;;;;;;;;5059205;28;20109;-81
2020/12/02 10:19:15;;;;;;;61.45;32.25;;;;;;;;;;5047350;28;20059;-82
2020/12/02 10:22:01;;;;;;;59.85;32.53;;;;;;;;;;5047279;28;20051;-82
2020/12/02 10:24:55;;;;;;;60.25;32.75;;;;;;;;;;5072591;28;20063;-82
2020/12/02 10:27:54;;;;;;;68.00;34.35;;;;;;;;;;5078652;28;20044;-83
2020/12/02 10:30:25;;;;;;;69.93;33.58;;;;;;;;;;5058124;28;20060;-81
2020/12/02 10:33:17;;;;;;;69.15;33.70;;;;;;;;;;5078242;28;20049;-81
2020/12/02 10:35:45;;;;;;;64.93;32.42;;;;;;;;;;5077103;28;20491;-82
2020/12/02 10:38:35;;;;;;;65.00;34.05;;;;;;;;;;5056990;28;20059;-82
2020/12/02 10:41:12;;;;;;;68.15;33.88;;;;;;;;;;5076564;28;20052;-82
2020/12/02 10:43:47;;;;;;;63.38;32.45;;;;;;;;;;5079286;28;20131;-82
2020/12/02 10:46:21;;;;;;;62.75;32.90;;;;;;;;;;5063270;28;20135;-82
2020/12/02 10:49:11;;;;;;;60.97;30.90;;;;;;;;;;5075845;28;20060;-83
2020/12/02 10:51:39;;;;;;;65.63;33.83;;;;;;;;;;5042022;28;20056;-81
2020/12/02 10:54:13;;;;;;;62.85;33.75;;;;;;;;;;5055829;28;20103;-82
2020/12/02 10:56:43;;;;;;;60.10;32.47;;;;;;;;;;5055661;28;20524;-82
2020/12/02 10:59:25;;;;;;;62.88;32.65;;;;;;;;;;5067095;28;20049;-82
2020/12/02 11:01:54;;;;;;;61.38;32.10;;;;;;;;;;5070224;28;20374;-82
2020/12/02 11:04:21;;;;;;;62.42;31.50;;;;;;;;;;5079602;28;20052;-81
2020/12/02 11:07:08;;;;;;;62.05;31.92;;;;;;;;;;5078075;28;20413;-82
2020/12/02 11:09:53;;;;;;;63.33;32.45;;;;;;;;;;5060420;28;20054;-82
2020/12/02 11:12:59;;;;;;;63.55;32.45;;;;;;;;;;5059048;28;20224;-82
2020/12/02 11:15:54;;;;;;;64.28;33.70;;;;;;;;;;4980455;28;20161;-82
2020/12/02 11:18:42;;;;;;;63.45;33.22;;;;;;;;;;5015763;28;20059;-83
2020/12/02 11:21:40;;;;;;;60.85;32.45;;;;;;;;;;5060766;28;20055;-82
2020/12/02 11:24:29;;;;;;;63.30;34.17;;;;;;;;;;5089182;28;20049;-82
2020/12/02 11:26:57;;;;;;;64.57;34.67;;;;;;;;;;5073834;28;20059;-83
2020/12/02 11:29:26;;;;;;;64.63;33.60;;;;;;;;;;5058603;28;20483;-82
2020/12/02 11:32:12;;;;;;;67.95;33.45;;;;;;;;;;5034381;28;20049;-82
2020/12/02 11:34:50;;;;;;;69.57;33.65;;;;;;;;;;5066136;28;20214;-82
2020/12/02 11:37:42;;;;;;;65.65;34.85;;;;;;;;;;5040277;28;20069;-82
2020/12/02 11:40:19;;;;;;;69.85;34.75;;;;;;;;;;5037062;28;20075;-82
2020/12/02 11:43:06;;;;;;;64.75;34.40;;;;;;;;;;5021483;28;20081;-82
2020/12/02 11:45:37;;;;;;;;;;;;;;;;;;5019838;28;20064;-81
2020/12/02 11:48:35;;;;;;;64.72;33.80;;;;;;;;;;5035492;28;19971;-82
2020/12/02 11:51:14;;;;;;;67.10;36.35;;;;;;;;;;5031950;28;20033;-83
2020/12/02 11:53:44;;;;;;;69.47;35.63;;;;;;;;;;5018344;28;20045;-83
2020/12/02 11:56:14;;;;;;;64.30;33.60;;;;;;;;;;5034880;28;20083;-82
2020/12/02 11:58:44;;;;;;;68.00;34.13;;;;;;;;;;5037459;28;20094;-82
2020/12/02 12:01:23;;;;;;;75.38;38.20;;;;;;;;;;5049064;28;20049;-83
2020/12/02 12:04:05;;;;;;;64.75;34.00;;;;;;;;;;5021948;28;20089;-82
2020/12/02 12:06:33;;;;;;;67.60;35.72;;;;;;;;;;5037408;28;20085;-82
2020/12/02 12:09:22;;;;;;;72.13;35.47;;;;;;;;;;5040896;28;20127;-83
2020/12/02 12:11:56;;;;;;;68.40;34.33;;;;;;;;;;5038244;28;20085;-83
2020/12/02 12:14:32;;;;;;;71.57;36.63;;;;;;;;;;5032782;28;20053;-82
2020/12/02 12:17:14;;;;;;;69.20;37.20;;;;;;;;;;5031096;28;20301;-82
2020/12/02 12:19:45;;;;;;;77.32;36.42;;;;;;;;;;5030683;28;20061;-83
2020/12/02 12:22:24;;;;;;;67.28;36.15;;;;;;;;;;5029085;28;20049;-82
2020/12/02 12:24:54;;;;;;;71.32;36.85;;;;;;;;;;5032614;28;20053;-81
2020/12/02 12:27:21;;;;;;;71.00;37.13;;;;;;;;;;5037221;28;20140;-82
2020/12/02 12:29:54;;;;;;;73.18;38.55;;;;;;;;;;5034577;28;20053;-81
2020/12/02 12:32:27;;;;;;;72.60;36.40;;;;;;;;;;5035418;28;20045;-81
2020/12/02 12:34:57;;;;;;;71.95;35.85;;;;;;;;;;5022686;28;20049;-82
2020/12/02 12:37:50;;;;;;;72.90;37.45;;;;;;;;;;5071967;28;20082;-83
2020/12/02 12:40:37;;;;;;;68.88;37.20;;;;;;;;;;5073483;28;20108;-82
2020/12/02 12:43:09;;;;;;;72.97;37.28;;;;;;;;;;5052871;28;20217;-82
2020/12/02 12:45:44;;;;;;;69.68;34.22;;;;;;;;;;5058296;28;20051;-82
2020/12/02 12:48:16;;;;;;;72.45;37.03;;;;;;;;;;5053427;28;20427;-82
2020/12/02 12:50:51;;;;;;;79.47;37.33;;;;;;;;;;5036015;28;20065;-83
2020/12/02 12:53:23;;;;;;;74.28;35.58;;;;;;;;;;5034570;28;20471;-82
2020/12/02 12:55:56;;;;;;;75.13;37.28;;;;;;;;;;5056265;28;20090;-82
2020/12/02 12:58:28;;;;;;;73.18;38.30;;;;;;;;;;5072767;28;20043;-81
2020/12/02 13:00:58;;;;;;;72.45;35.78;;;;;;;;;;5053818;28;20099;-83
2020/12/02 13:03:31;;;;;;;68.38;35.38;;;;;;;;;;5057395;28;20152;-82
2020/12/02 13:06:12;;;;;;;75.03;37.70;;;;;;;;;;5056542;28;20106;-82
2020/12/02 13:08:58;;;;;;;78.47;41.17;;;;;;;;;;5058309;28;20136;-82
2020/12/02 13:11:44;;;;;;;69.05;34.38;;;;;;;;;;5088595;28;20079;-82
2020/12/02 13:14:33;;;;;;;75.55;36.72;;;;;;;;;;5072704;28;20053;-82
2020/12/02 13:17:18;;;;;;;70.35;35.45;;;;;;;;;;5071406;28;20051;-82
2020/12/02 13:20:04;;;;;;;75.45;36.97;;;;;;;;;;5054007;28;20139;-81
2020/12/02 13:22:30;;;;;;;78.32;38.78;;;;;;;;;;5067051;28;20055;-81
2020/12/02 13:25:03;;;;;;;77.55;36.15;;;;;;;;;;5056773;28;20044;-82
2020/12/02 13:27:37;;;;;;;67.90;35.88;;;;;;;;;;5072680;28;20416;-82
2020/12/02 13:30:18;;;;;;;71.22;36.65;;;;;;;;;;5062322;28;20055;-82
2020/12/02 13:33:02;;;;;;;71.40;36.15;;;;;;;;;;5093236;28;20055;-82
2020/12/02 13:35:39;;;;;;;76.80;36.42;;;;;;;;;;5094169;28;20056;-82
2020/12/02 13:38:14;;;;;;;73.28;37.22;;;;;;;;;;5077210;28;20052;-82
2020/12/02 13:40:42;;;;;;;74.68;38.42;;;;;;;;;;5074157;28;20048;-82
2020/12/02 13:43:17;;;;;;;80.35;36.78;;;;;;;;;;5051384;28;20055;-82
2020/12/02 13:45:45;;;;;;;71.78;36.20;;;;;;;;;;5066545;28;20139;-82
2020/12/02 13:48:14;;;;;;;73.80;35.88;;;;;;;;;;5071790;28;20053;-82
2020/12/02 13:51:08;;;;;;;76.72;35.70;;;;;;;;;;5045650;28;20080;-82
2020/12/02 13:53:41;;;;;;;74.07;35.55;;;;;;;;;;5045926;28;20341;-82
2020/12/02 13:56:10;;;;;;;74.90;35.75;;;;;;;;;;5044491;28;20048;-82
2020/12/02 13:58:43;;;;;;;70.65;36.42;;;;;;;;;;5074940;28;20147;-82
2020/12/02 14:01:10;;;;;;;73.28;36.63;;;;;;;;;;5057047;28;20048;-82
2020/12/02 14:03:56;;;;;;;76.60;38.05;;;;;;;;;;5075213;28;20048;-82
2020/12/02 14:06:41;;;;;;;71.75;37.03;;;;;;;;;;5057364;28;20047;-82
2020/12/02 14:09:10;;;;;;;72.03;36.33;;;;;;;;;;5051936;28;20453;-82
2020/12/02 14:11:58;;;;;;;71.60;37.08;;;;;;;;;;5037832;28;20087;-82
2020/12/02 14:14:28;;;;;;;80.38;39.55;;;;;;;;;;5052228;28;20448;-82
2020/12/02 14:16:55;;;;;;;73.18;38.10;;;;;;;;;;5055837;28;20425;-83
2020/12/02 14:19:22;;;;;;;84.40;42.33;;;;;;;;;;5071234;28;20204;-83
2020/12/02 14:22:10;;;;;;;79.25;42.97;;;;;;;;;;5084375;28;20083;-83
2020/12/02 14:24:39;;;;;;;78.28;37.47;;;;;;;;;;5073062;28;20258;-83
2020/12/02 14:27:06;;;;;;;84.15;39.10;;;;;;;;;;5066423;28;20037;-83
2020/12/02 14:29:33;;;;;;;79.22;38.80;;;;;;;;;;5054969;28;20100;-83
2020/12/02 14:32:01;;;;;;;87.60;40.58;;;;;;;;;;5067100;28;20040;-82
2020/12/02 14:34:28;;;;;;;78.43;39.83;;;;;;;;;;5049175;28;20220;-82
2020/12/02 14:37:06;;;;;;;82.35;40.95;;;;;;;;;;5073574;28;20362;-82
2020/12/02 14:39:39;;;;;;;78.88;39.83;;;;;;;;;;5072616;28;20037;-83
2020/12/02 14:42:09;;;;;;;79.22;38.63;;;;;;;;;;5068361;28;20080;-84
2020/12/02 14:44:39;;;;;;;78.43;39.00;;;;;;;;;;5054799;28;20070;-84
2020/12/02 14:47:10;;;;;;;79.93;41.03;;;;;;;;;;5070586;28;20053;-83
2020/12/02 14:49:38;;;;;;;87.30;39.47;;;;;;;;;;5053830;28;20143;-83
2020/12/02 14:52:05;;;;;;;87.68;40.70;;;;;;;;;;5054871;28;20053;-83
2020/12/02 14:54:36;;;;;;;73.32;37.67;;;;;;;;;;5054207;28;20214;-84
2020/12/02 14:57:21;;;;;;;80.15;39.65;;;;;;;;;;5071633;28;20049;-84
2020/12/02 15:00:03;;;;;;;77.30;38.60;;;;;;;;;;5064924;28;20352;-83
2020/12/02 15:02:31;;;;;;;70.30;37.22;;;;;;;;;;5081456;28;20282;-83
2020/12/02 15:04:58;;;;;;;75.03;38.30;;;;;;;;;;5048803;28;20252;-84
2020/12/02 15:07:58;;;;;;;74.68;37.60;;;;;;;;;;5063863;28;20059;-83
2020/12/02 15:10:46;;;;;;;73.38;36.78;;;;;;;;;;5047262;28;20052;-83